Time;durP1;ratioP1;P1;durP2;ratioP2;P2;SDS_P1;SDS_P2;PMS_P1;PMS_P2;Temp;Humidity;BMP_temperature;BMP_pressure;BME280_temperature;BME280_humidity;BME280_pressure;Samples;Min_cycle;Max_cycle;Signal;HPM_P1;HPM_P2
2020/12/14 07:50:51;;;;;;;61.80;25.35;;;;;;;-1.10;91.47;101034.39;1732602;82;21082;-36
2020/12/14 07:53:19;;;;;;;76.80;25.02;;;;;;;-1.04;91.29;101027.84;1764790;80;21368;-36
2020/12/14 07:56:32;;;;;;;59.15;23.42;;;;;;;-1.03;91.24;101030.00;1776785;79;23120;-35
2020/12/14 07:58:59;;;;;;;49.63;22.37;;;;;;;-1.07;91.29;101033.23;1744724;82;20979;-35
2020/12/14 08:01:27;;;;;;;56.37;22.52;;;;;;;-1.06;91.32;101037.52;1749638;82;21194;-36
2020/12/14 08:04:00;;;;;;;44.35;20.32;;;;;;;-1.04;91.33;101035.89;1749502;82;20975;-36
2020/12/14 08:06:28;;;;;;;49.98;23.32;;;;;;;-1.04;91.31;101041.83;1749601;82;21703;-34
2020/12/14 08:08:56;;;;;;;52.15;23.60;;;;;;;-1.05;91.39;101039.25;1720629;82;20986;-36
2020/12/14 08:11:24;;;;;;;52.53;23.18;;;;;;;-1.02;91.29;101037.66;1749840;81;20971;-36
2020/12/14 08:13:52;;;;;;;56.35;23.32;;;;;;;-1.04;91.27;101040.55;1744977;81;21192;-36
2020/12/14 08:16:20;;;;;;;48.15;21.68;;;;;;;-1.02;91.32;101036.81;1749716;82;21030;-35
2020/12/14 08:18:49;;;;;;;55.95;25.30;;;;;;;-1.04;91.32;101042.25;1706643;82;20931;-34
2020/12/14 08:21:23;;;;;;;51.28;21.80;;;;;;;-1.00;91.28;101039.01;1749723;82;20975;-34
2020/12/14 08:23:53;;;;;;;52.08;23.22;;;;;;;-1.03;91.34;101038.47;1749526;82;21010;-35
2020/12/14 08:26:32;;;;;;;54.98;23.73;;;;;;;-1.01;91.36;101039.81;1749777;82;21365;-35
2020/12/14 08:29:00;;;;;;;50.12;21.57;;;;;;;-0.99;91.32;101035.66;1749642;82;20970;-37
2020/12/14 08:31:28;;;;;;;50.03;20.50;;;;;;;-1.01;91.29;101036.01;1749706;82;20975;-36
2020/12/14 08:33:56;;;;;;;54.40;24.00;;;;;;;-1.01;91.33;101029.66;1749690;82;21051;-35
2020/12/14 08:36:25;;;;;;;50.25;20.12;;;;;;;-1.01;91.37;101028.38;1749834;81;21007;-37
2020/12/14 08:38:53;;;;;;;48.68;19.98;;;;;;;-1.00;91.29;101033.92;1749739;82;21273;-36
2020/12/14 08:41:23;;;;;;;53.68;22.13;;;;;;;-1.02;91.32;101038.09;1749752;82;21445;-37
2020/12/14 08:43:54;;;;;;;52.00;23.30;;;;;;;-1.01;91.34;101034.73;1749762;82;21426;-35
2020/12/14 08:46:26;;;;;;;50.40;23.22;;;;;;;-1.01;91.32;101042.36;1749767;82;20943;-35
2020/12/14 08:48:59;;;;;;;51.15;21.97;;;;;;;-1.00;91.38;101036.47;1721613;82;20960;-36
2020/12/14 08:51:31;;;;;;;47.17;21.80;;;;;;;-0.97;91.33;101039.12;1749642;82;21447;-36
2020/12/14 08:54:15;;;;;;;55.52;24.52;;;;;;;-0.96;91.37;101037.46;1749721;81;21526;-37
2020/12/14 08:56:44;;;;;;;49.58;22.10;;;;;;;-0.96;91.41;101035.77;1737021;81;21550;-36
2020/12/14 08:59:16;;;;;;;45.78;21.48;;;;;;;-0.93;91.40;101030.80;1736423;82;20979;-36
2020/12/14 09:02:02;;;;;;;51.73;21.65;;;;;;;-0.91;91.38;101032.99;1736582;82;21003;-38
2020/12/14 09:04:32;;;;;;;46.20;22.45;;;;;;;-0.89;91.39;101019.94;1736505;82;21375;-35
2020/12/14 09:07:00;;;;;;;47.35;21.42;;;;;;;-0.91;91.31;101021.97;1736041;82;20944;-34
2020/12/14 09:09:34;;;;;;;51.25;23.57;;;;;;;-0.90;91.36;101020.74;1735958;82;21012;-35
2020/12/14 09:12:02;;;;;;;60.20;22.45;;;;;;;-0.86;91.27;101016.66;1735918;82;20940;-35
2020/12/14 09:14:31;;;;;;;49.25;21.25;;;;;;;-0.89;91.23;101014.00;1735911;82;20925;-36
2020/12/14 09:17:02;;;;;;;50.52;20.45;;;;;;;-0.87;91.22;101009.84;1735917;82;21259;-37
2020/12/14 09:19:32;;;;;;;48.85;22.22;;;;;;;-0.87;91.22;101006.02;1735939;82;20951;-35
2020/12/14 09:22:01;;;;;;;47.58;22.27;;;;;;;-0.88;91.28;101012.80;1736054;82;20920;-35
2020/12/14 09:24:31;;;;;;;52.70;22.37;;;;;;;-0.84;91.29;101009.09;1735943;82;20904;-35
2020/12/14 09:27:10;;;;;;;52.95;24.55;;;;;;;-0.81;91.29;101012.59;1735966;82;20921;-35
2020/12/14 09:29:40;;;;;;;52.03;22.60;;;;;;;-0.76;91.27;101006.42;1736008;82;21205;-35
2020/12/14 09:32:09;;;;;;;51.45;21.60;;;;;;;-0.79;91.22;101007.58;1735894;82;20940;-34
2020/12/14 09:34:39;;;;;;;53.17;23.55;;;;;;;-0.79;91.30;100999.95;1735992;82;21427;-36
2020/12/14 09:37:07;;;;;;;55.17;22.42;;;;;;;-0.76;91.25;101004.76;1735961;82;20984;-34
2020/12/14 09:39:35;;;;;;;43.65;20.45;;;;;;;-0.77;91.20;101005.53;1735984;82;20999;-36
2020/12/14 09:42:03;;;;;;;52.48;22.85;;;;;;;-0.79;91.20;101005.89;1736043;82;21068;-35
2020/12/14 09:44:31;;;;;;;55.15;22.70;;;;;;;-0.77;91.21;101008.50;1735857;82;20936;-35
2020/12/14 09:47:00;;;;;;;47.17;21.23;;;;;;;-0.79;91.25;101007.58;1735958;82;21007;-36
2020/12/14 09:49:28;;;;;;;50.63;20.70;;;;;;;-0.75;91.25;101006.87;1735910;82;20929;-37
2020/12/14 09:51:56;;;;;;;46.55;21.23;;;;;;;-0.73;91.21;101007.80;1735926;82;20928;-35
2020/12/14 09:54:24;;;;;;;52.27;21.95;;;;;;;-0.72;91.24;101005.72;1735909;82;21379;-37
2020/12/14 09:56:52;;;;;;;51.83;22.37;;;;;;;-0.73;91.28;100999.78;1748231;81;21298;-35
2020/12/14 09:59:20;;;;;;;49.83;21.48;;;;;;;-0.70;91.16;100999.43;1750032;82;20916;-35
2020/12/14 10:01:48;;;;;;;48.48;20.92;;;;;;;-0.71;91.16;100985.84;1750039;82;20911;-36
2020/12/14 10:04:16;;;;;;;47.62;22.67;;;;;;;-0.69;91.17;100989.30;1749904;82;21023;-37
2020/12/14 10:06:47;;;;;;;51.42;23.27;;;;;;;-0.70;91.18;100991.80;1749969;82;21366;-36
2020/12/14 10:09:16;;;;;;;41.23;19.70;;;;;;;-0.67;91.17;100985.55;1749878;82;20999;-36
2020/12/14 10:11:44;;;;;;;43.85;22.15;;;;;;;-0.66;91.23;100981.77;1749963;81;21026;-37
2020/12/14 10:14:12;;;;;;;56.88;22.82;;;;;;;-0.63;91.25;100984.84;1749912;82;20991;-36
2020/12/14 10:16:41;;;;;;;51.65;22.60;;;;;;;-0.64;91.28;100986.51;1749948;82;21035;-36
2020/12/14 10:19:10;;;;;;;42.45;20.02;;;;;;;-0.60;91.20;100987.50;1749350;82;21271;-36
2020/12/14 10:21:38;;;;;;;49.05;22.62;;;;;;;-0.63;91.20;100987.00;1750035;82;21414;-36
2020/12/14 10:24:06;;;;;;;53.63;22.87;;;;;;;-0.62;91.20;100987.84;1749876;82;20991;-36
2020/12/14 10:26:36;;;;;;;47.62;21.20;;;;;;;-0.64;91.26;100975.06;1749867;82;21018;-37
2020/12/14 10:29:04;;;;;;;42.20;19.77;;;;;;;-0.63;91.21;100976.83;1749959;82;21593;-37
2020/12/14 10:31:33;;;;;;;45.45;21.23;;;;;;;-0.61;91.21;100976.47;1749991;82;22335;-36
2020/12/14 10:34:01;;;;;;;55.12;22.50;;;;;;;-0.60;91.24;100980.75;1749839;82;20974;-36
2020/12/14 10:36:30;;;;;;;54.10;22.13;;;;;;;-0.61;91.27;100985.38;1749815;82;20936;-37
2020/12/14 10:38:57;;;;;;;37.23;18.95;;;;;;;-0.57;91.27;100975.30;1749859;82;21117;-38
2020/12/14 10:41:25;;;;;;;51.08;20.35;;;;;;;-0.56;91.30;100974.50;1749948;82;20983;-36
2020/12/14 10:43:53;;;;;;;37.25;19.15;;;;;;;-0.55;91.28;100980.04;1749901;82;21206;-37
2020/12/14 10:46:25;;;;;;;48.48;21.93;;;;;;;-0.59;91.36;100965.95;1749763;82;20935;-36
2020/12/14 10:48:54;;;;;;;54.80;20.85;;;;;;;-0.55;91.40;100968.17;1749792;81;20983;-38
2020/12/14 10:51:22;;;;;;;49.23;20.62;;;;;;;-0.52;91.29;100966.16;1749822;81;20995;-38
2020/12/14 10:53:50;;;;;;;53.38;20.30;;;;;;;-0.55;91.28;100968.59;1749943;82;20924;-36
2020/12/14 10:56:18;;;;;;;46.05;20.85;;;;;;;-0.56;91.31;100961.77;1742780;81;21140;-36
2020/12/14 10:58:45;;;;;;;43.92;21.25;;;;;;;-0.54;91.27;100966.09;1735871;82;21059;-36
2020/12/14 11:01:14;;;;;;;48.55;22.80;;;;;;;-0.55;91.31;100961.81;1735887;82;21007;-36
2020/12/14 11:03:42;;;;;;;45.78;21.73;;;;;;;-0.54;91.34;100960.15;1735928;82;20999;-35
2020/12/14 11:06:10;;;;;;;44.13;18.95;;;;;;;-0.54;91.34;100958.87;1735893;82;20968;-36
2020/12/14 11:08:39;;;;;;;55.15;23.15;;;;;;;-0.51;91.37;100966.19;1735862;82;21194;-37
2020/12/14 11:11:07;;;;;;;45.75;22.52;;;;;;;-0.47;91.34;100974.80;1735885;82;21158;-35
2020/12/14 11:13:35;;;;;;;48.00;20.08;;;;;;;-0.50;91.37;100974.70;1735921;82;21015;-37
2020/12/14 11:16:03;;;;;;;45.48;20.92;;;;;;;-0.50;91.37;100971.77;1735768;82;21127;-35
2020/12/14 11:18:31;;;;;;;44.27;21.73;;;;;;;-0.48;91.39;100969.27;1735886;82;21025;-36
2020/12/14 11:21:00;;;;;;;47.48;20.82;;;;;;;-0.45;91.39;100973.18;1735856;82;21200;-36
2020/12/14 11:23:29;;;;;;;41.37;21.12;;;;;;;-0.46;91.47;100975.27;1735793;82;20924;-36
2020/12/14 11:25:57;;;;;;;47.48;21.00;;;;;;;-0.39;91.35;100977.62;1735707;82;21007;-36
2020/12/14 11:28:27;;;;;;;46.77;19.98;;;;;;;-0.40;91.36;100981.83;1735794;82;21058;-36
2020/12/14 11:30:55;;;;;;;48.85;22.70;;;;;;;-0.38;91.38;100984.45;1735887;82;21502;-36
2020/12/14 11:33:23;;;;;;;55.08;22.82;;;;;;;-0.38;91.42;100985.33;1735910;82;21375;-38
2020/12/14 11:35:51;;;;;;;45.63;20.37;;;;;;;-0.37;91.35;100990.88;1735629;82;20932;-37
2020/12/14 11:38:19;;;;;;;44.48;20.23;;;;;;;-0.34;91.35;100999.00;1735885;82;21293;-36
2020/12/14 11:40:47;;;;;;;46.68;21.25;;;;;;;-0.34;91.34;100999.00;1735772;82;20940;-35
2020/12/14 11:43:15;;;;;;;50.00;22.02;;;;;;;-0.36;91.35;100993.88;1735982;82;20929;-37
2020/12/14 11:45:45;;;;;;;51.25;21.95;;;;;;;-0.33;91.34;100999.06;1735786;82;21374;-36
2020/12/14 11:48:13;;;;;;;56.33;25.02;;;;;;;-0.32;91.25;100988.08;1715687;82;21205;-37
2020/12/14 11:50:42;;;;;;;50.43;23.77;;;;;;;-0.32;91.27;100994.44;1735878;82;20987;-36
2020/12/14 11:53:11;;;;;;;45.65;24.72;;;;;;;-0.31;91.31;100998.71;1735934;82;20992;-37
2020/12/14 11:55:39;;;;;;;54.65;21.40;;;;;;;-0.31;91.33;100997.44;1735928;81;21067;-36
2020/12/14 11:58:08;;;;;;;41.42;19.90;;;;;;;-0.26;91.29;100996.73;1710225;84;22646;-36
2020/12/14 12:00:35;;;;;;;45.92;20.52;;;;;;;-0.24;91.26;100997.64;1710244;84;20946;-35
2020/12/14 12:03:03;;;;;;;45.85;20.92;;;;;;;-0.25;91.29;101001.00;1710252;84;20988;-36
2020/12/14 12:05:32;;;;;;;42.15;20.35;;;;;;;-0.25;91.29;100999.73;1710171;83;21066;-36
2020/12/14 12:07:59;;;;;;;42.23;20.37;;;;;;;-0.23;91.28;101004.47;1710292;84;20982;-37
2020/12/14 12:10:27;;;;;;;49.85;20.00;;;;;;;-0.20;91.17;101005.84;1710172;84;21205;-36
2020/12/14 12:12:56;;;;;;;39.73;21.62;;;;;;;-0.21;91.20;100996.08;1710088;84;21029;-37
2020/12/14 12:15:24;;;;;;;46.33;22.13;;;;;;;-0.21;91.18;101004.11;1709972;84;21030;-36
2020/12/14 12:17:54;;;;;;;45.30;22.25;;;;;;;-0.20;91.17;101002.91;1710137;84;21529;-37
2020/12/14 12:20:21;;;;;;;44.25;21.42;;;;;;;-0.20;91.13;101005.84;1710144;84;21608;-34
2020/12/14 12:22:49;;;;;;;38.38;20.57;;;;;;;-0.20;91.13;101015.63;1710136;83;21202;-35
2020/12/14 12:25:17;;;;;;;37.10;18.00;;;;;;;-0.20;91.17;101018.17;1710019;84;21061;-36
2020/12/14 12:27:44;;;;;;;34.55;16.62;;;;;;;-0.19;91.17;101011.00;1710020;84;21010;-35
2020/12/14 12:30:12;;;;;;;36.08;17.42;;;;;;;-0.16;91.10;101016.58;1710103;84;21141;-34
2020/12/14 12:32:42;;;;;;;33.33;16.87;;;;;;;-0.18;91.05;101014.00;1709619;83;20995;-35
2020/12/14 12:35:11;;;;;;;30.12;16.82;;;;;;;-0.20;91.05;101013.08;1710085;84;22066;-35
2020/12/14 12:37:39;;;;;;;32.58;16.52;;;;;;;-0.22;91.02;101017.65;1710168;83;21580;-37
2020/12/14 12:40:09;;;;;;;37.53;18.23;;;;;;;-0.25;90.97;101017.16;1710028;84;20998;-35
2020/12/14 12:42:37;;;;;;;39.78;18.70;;;;;;;-0.28;91.00;101011.92;1710118;84;21026;-36
2020/12/14 12:45:05;;;;;;;38.95;18.42;;;;;;;-0.32;91.05;101019.00;1710217;84;21050;-35
2020/12/14 12:47:33;;;;;;;40.98;16.23;;;;;;;-0.34;91.04;101013.88;1710310;84;21885;-35
2020/12/14 12:50:01;;;;;;;31.15;16.62;;;;;;;-0.32;91.04;101011.37;1710199;84;21445;-38
2020/12/14 12:52:29;;;;;;;44.00;18.62;;;;;;;-0.32;91.08;101007.55;1710357;84;20955;-36
2020/12/14 12:54:58;;;;;;;35.63;18.40;;;;;;;-0.37;91.09;101007.41;1710288;84;21116;-35
2020/12/14 12:57:25;;;;;;;31.62;17.05;;;;;;;-0.34;91.11;101011.72;1733044;81;20932;-37
2020/12/14 12:59:54;;;;;;;37.88;17.20;;;;;;;-0.31;91.12;101013.98;1749916;82;21529;-35
2020/12/14 13:02:24;;;;;;;36.48;18.55;;;;;;;-0.31;91.15;101013.98;1749973;82;21082;-37
2020/12/14 13:04:52;;;;;;;39.50;18.87;;;;;;;-0.31;91.11;101015.64;1749921;82;20952;-37
2020/12/14 13:07:20;;;;;;;37.30;17.87;;;;;;;-0.32;91.09;101017.73;1749901;82;20928;-37
2020/12/14 13:09:48;;;;;;;41.68;20.37;;;;;;;-0.31;91.05;101019.06;1749982;82;20939;-37
2020/12/14 13:12:18;;;;;;;40.48;19.82;;;;;;;-0.32;91.08;101010.09;1749980;82;21417;-35
2020/12/14 13:14:47;;;;;;;35.90;18.65;;;;;;;-0.35;91.06;101011.27;1749874;82;21478;-35
2020/12/14 13:17:15;;;;;;;42.33;19.82;;;;;;;-0.34;91.07;101004.09;1749971;81;20939;-36
2020/12/14 13:19:44;;;;;;;38.28;17.67;;;;;;;-0.35;91.04;101008.33;1749984;82;21043;-37
2020/12/14 13:22:12;;;;;;;46.25;20.02;;;;;;;-0.38;91.04;101009.89;1750006;81;20999;-36
2020/12/14 13:24:42;;;;;;;40.05;20.60;;;;;;;-0.42;91.10;101016.53;1749980;82;21415;-36
2020/12/14 13:27:10;;;;;;;44.33;18.48;;;;;;;-0.44;91.12;101015.61;1749843;82;20983;-36
2020/12/14 13:29:38;;;;;;;35.60;18.37;;;;;;;-0.44;91.11;101019.43;1750067;81;20928;-38
2020/12/14 13:32:08;;;;;;;45.60;21.82;;;;;;;-0.45;91.11;101018.58;1749890;82;21023;-37
2020/12/14 13:34:36;;;;;;;43.08;20.30;;;;;;;-0.49;91.18;101017.13;1749897;82;20991;-36
2020/12/14 13:37:05;;;;;;;49.53;20.40;;;;;;;-0.49;91.20;101013.31;1749916;82;21170;-36
2020/12/14 13:39:32;;;;;;;40.55;19.77;;;;;;;-0.50;91.20;101012.86;1749933;81;20932;-37
2020/12/14 13:42:01;;;;;;;49.90;22.77;;;;;;;-0.51;91.23;101004.77;1749898;82;20944;-37
2020/12/14 13:44:28;;;;;;;42.80;21.30;;;;;;;-0.54;91.25;101009.75;1749958;82;20947;-36
2020/12/14 13:46:56;;;;;;;43.02;19.40;;;;;;;-0.56;91.31;101016.04;1749884;82;20983;-35
2020/12/14 13:49:24;;;;;;;50.28;21.55;;;;;;;-0.56;91.29;101007.56;1749907;82;21350;-37
2020/12/14 13:51:57;;;;;;;40.88;21.07;;;;;;;-0.56;91.32;101013.50;1749785;81;20951;-36
2020/12/14 13:54:25;;;;;;;46.58;22.58;;;;;;;-0.60;91.36;101016.36;1749901;82;21011;-35
2020/12/14 13:56:53;;;;;;;46.83;22.45;;;;;;;-0.60;91.37;101010.00;1747488;81;21628;-36
2020/12/14 13:59:21;;;;;;;51.60;22.48;;;;;;;-0.59;91.35;101014.27;1735953;82;21011;-37
2020/12/14 14:01:49;;;;;;;50.38;22.45;;;;;;;-0.57;91.38;101014.73;1735928;82;21215;-35
2020/12/14 14:04:17;;;;;;;44.77;21.55;;;;;;;-0.60;91.44;101012.54;1735901;82;21481;-35
2020/12/14 14:06:49;;;;;;;43.10;21.70;;;;;;;-0.58;91.43;101020.20;1735802;82;20968;-35
2020/12/14 14:09:18;;;;;;;45.05;20.68;;;;;;;-0.55;91.43;101019.47;1735985;82;21051;-35
2020/12/14 14:11:49;;;;;;;48.23;21.48;;;;;;;-0.56;91.47;101021.55;1735925;82;20938;-35
2020/12/14 14:14:17;;;;;;;42.43;20.95;;;;;;;-0.57;91.49;101027.45;1735927;82;21375;-37
2020/12/14 14:16:56;;;;;;;46.42;22.35;;;;;;;-0.54;91.47;101027.55;1735784;82;20971;-35
2020/12/14 14:19:27;;;;;;;51.33;22.90;;;;;;;-0.53;91.41;101029.28;1735983;82;21515;-36
2020/12/14 14:21:56;;;;;;;53.48;23.80;;;;;;;-0.53;91.43;101040.73;1735921;82;20979;-36
2020/12/14 14:24:24;;;;;;;52.05;22.10;;;;;;;-0.54;91.48;101047.48;1735821;82;20972;-37
2020/12/14 14:26:55;;;;;;;49.63;22.70;;;;;;;-0.53;91.44;101044.13;1735879;81;21445;-36
2020/12/14 14:29:23;;;;;;;58.00;25.10;;;;;;;-0.51;91.43;101037.41;1735888;81;20924;-37
2020/12/14 14:31:55;;;;;;;52.85;25.40;;;;;;;-0.51;91.40;101035.30;1735890;82;20936;-37
2020/12/14 14:34:24;;;;;;;48.58;23.32;;;;;;;-0.52;91.35;101042.05;1735833;82;21550;-36
2020/12/14 14:36:54;;;;;;;44.75;22.58;;;;;;;-0.52;91.34;101045.00;1735838;82;21431;-36
2020/12/14 14:39:24;;;;;;;50.28;23.00;;;;;;;-0.53;91.29;101049.63;1735930;82;21383;-37
2020/12/14 14:41:53;;;;;;;52.33;23.83;;;;;;;-0.56;91.31;101048.25;1735857;82;21050;-37
2020/12/14 14:44:20;;;;;;;54.95;22.13;;;;;;;-0.60;91.36;101050.69;1735784;82;20924;-36
2020/12/14 14:46:55;;;;;;;40.67;19.57;;;;;;;-0.58;91.40;101052.00;1735940;82;21543;-37
2020/12/14 14:49:24;;;;;;;45.03;21.05;;;;;;;-0.57;91.40;101054.16;1736061;82;20925;-36
2020/12/14 14:51:53;;;;;;;44.98;21.87;;;;;;;-0.57;91.48;101055.00;1735859;82;21158;-36
2020/12/14 14:54:22;;;;;;;45.05;22.22;;;;;;;-0.56;91.58;101063.09;1735811;82;21004;-36
2020/12/14 14:56:50;;;;;;;48.78;21.17;;;;;;;-0.53;91.55;101068.29;1735709;81;20920;-38
2020/12/14 14:59:18;;;;;;;50.43;22.35;;;;;;;-0.54;91.49;101060.20;1749950;81;21192;-35
2020/12/14 15:01:46;;;;;;;50.25;23.10;;;;;;;-0.54;91.50;101065.70;1749834;82;20979;-38
2020/12/14 15:04:14;;;;;;;55.58;26.23;;;;;;;-0.53;91.56;101069.98;1749900;82;21421;-38
2020/12/14 15:06:42;;;;;;;58.35;25.77;;;;;;;-0.50;91.58;101065.01;1749739;81;20984;-38
2020/12/14 15:09:11;;;;;;;78.57;32.38;;;;;;;-0.51;91.46;101056.49;1749869;82;21015;-36
2020/12/14 15:11:40;;;;;;;75.00;33.05;;;;;;;-0.52;91.47;101052.22;1749854;81;20908;-37
2020/12/14 15:14:10;;;;;;;55.83;24.87;;;;;;;-0.56;91.49;101060.97;1749870;82;20991;-35
2020/12/14 15:16:41;;;;;;;50.88;23.40;;;;;;;-0.56;91.47;101063.09;1749813;82;21390;-36
2020/12/14 15:19:09;;;;;;;62.67;27.02;;;;;;;-0.57;91.44;101066.45;1749850;81;21095;-37
2020/12/14 15:21:38;;;;;;;62.03;28.20;;;;;;;-0.60;91.46;101062.14;1749853;81;20999;-39
2020/12/14 15:24:06;;;;;;;62.98;26.33;;;;;;;-0.60;91.51;101073.58;1749790;82;21007;-36
2020/12/14 15:26:34;;;;;;;64.75;27.25;;;;;;;-0.59;91.49;101069.34;1749927;82;21017;-35
2020/12/14 15:29:02;;;;;;;68.97;29.10;;;;;;;-0.61;91.49;101066.76;1749797;82;22320;-36
2020/12/14 15:31:30;;;;;;;66.82;26.48;;;;;;;-0.62;91.47;101064.15;1749835;82;20955;-36
2020/12/14 15:33:58;;;;;;;59.10;24.77;;;;;;;-0.62;91.53;101074.32;1749808;82;21529;-36
2020/12/14 15:36:27;;;;;;;59.93;24.98;;;;;;;-0.62;91.49;101070.11;1749814;82;20960;-36
2020/12/14 15:38:55;;;;;;;53.75;24.67;;;;;;;-0.64;91.40;101071.70;1749809;82;21038;-35
2020/12/14 15:41:23;;;;;;;67.50;25.45;;;;;;;-0.66;91.41;101068.23;1749890;82;21355;-35
2020/12/14 15:43:51;;;;;;;53.52;23.90;;;;;;;-0.67;91.45;101076.68;1749733;82;20935;-37
2020/12/14 15:46:20;;;;;;;63.55;27.30;;;;;;;-0.65;91.50;101072.52;1749906;82;20932;-36
2020/12/14 15:48:52;;;;;;;59.58;25.20;;;;;;;-0.65;91.49;101075.06;1749770;82;21032;-37
2020/12/14 15:51:18;;;;;;;59.73;24.82;;;;;;;-0.66;91.56;101073.33;1749682;81;20984;-36
2020/12/14 15:53:47;;;;;;;60.92;22.40;;;;;;;-0.66;91.57;101069.94;1749771;82;21380;-36
2020/12/14 15:56:18;;;;;;;54.88;24.52;;;;;;;-0.66;91.52;101064.42;1749710;81;21062;-37
2020/12/14 15:58:45;;;;;;;46.58;23.02;;;;;;;-0.66;91.45;101058.06;1740590;81;21031;-36
2020/12/14 16:01:17;;;;;;;59.00;25.80;;;;;;;-0.68;91.50;101062.23;1735811;82;20996;-35
2020/12/14 16:03:44;;;;;;;50.60;24.10;;;;;;;-0.70;91.52;101068.94;1735903;82;20940;-36
2020/12/14 16:06:16;;;;;;;56.10;24.92;;;;;;;-0.70;91.51;101063.00;1733580;82;22065;-37
2020/12/14 16:08:44;;;;;;;67.67;28.90;;;;;;;-0.70;91.50;101060.46;1735820;82;21015;-36
2020/12/14 16:11:13;;;;;;;60.78;28.27;;;;;;;-0.70;91.61;101065.55;1735878;82;21125;-35
2020/12/14 16:13:43;;;;;;;52.30;25.77;;;;;;;-0.71;91.61;101067.20;1735843;82;20960;-36
2020/12/14 16:16:14;;;;;;;49.53;25.52;;;;;;;-0.71;91.58;101076.11;1735790;82;20996;-36
2020/12/14 16:18:41;;;;;;;57.88;27.70;;;;;;;-0.70;91.53;101073.17;1735988;82;21411;-35
2020/12/14 16:21:10;;;;;;;55.85;27.15;;;;;;;-0.73;91.58;101077.73;1735963;82;21027;-35
2020/12/14 16:23:39;;;;;;;52.88;25.52;;;;;;;-0.75;91.64;101080.23;1735983;82;20965;-36
2020/12/14 16:26:07;;;;;;;50.80;24.40;;;;;;;-0.71;91.61;101080.34;1735879;82;20988;-36
2020/12/14 16:28:34;;;;;;;48.40;23.27;;;;;;;-0.71;91.61;101082.47;1717493;82;20992;-35
2020/12/14 16:31:03;;;;;;;49.88;24.18;;;;;;;-0.73;91.63;101082.81;1735996;82;21143;-37
2020/12/14 16:33:31;;;;;;;56.65;24.43;;;;;;;-0.75;91.63;101083.16;1735982;82;20896;-37
2020/12/14 16:35:59;;;;;;;44.25;22.15;;;;;;;-0.74;91.61;101079.42;1735911;82;20921;-35
2020/12/14 16:38:27;;;;;;;47.65;23.22;;;;;;;-0.74;91.58;101084.90;1735924;82;21098;-35
2020/12/14 16:40:55;;;;;;;50.67;25.23;;;;;;;-0.76;91.60;101088.67;1736060;82;21019;-38
2020/12/14 16:43:24;;;;;;;45.38;22.65;;;;;;;-0.79;91.64;101090.22;1736009;82;21482;-36
2020/12/14 16:45:52;;;;;;;54.13;23.40;;;;;;;-0.79;91.67;101090.22;1735826;82;20952;-37
2020/12/14 16:48:20;;;;;;;46.65;23.12;;;;;;;-0.78;91.65;101087.72;1736012;82;21074;-36
2020/12/14 16:50:48;;;;;;;46.65;23.85;;;;;;;-0.80;91.68;101081.70;1735922;82;20994;-36
2020/12/14 16:53:16;;;;;;;54.95;23.35;;;;;;;-0.80;91.75;101082.13;1736005;82;20972;-35
2020/12/14 16:55:44;;;;;;;44.80;21.90;;;;;;;-0.79;91.73;101088.95;1735946;82;22451;-35
2020/12/14 16:58:12;;;;;;;49.35;23.60;;;;;;;-0.79;91.72;101088.95;1738083;81;20968;-36
2020/12/14 17:00:40;;;;;;;50.15;25.10;;;;;;;-0.79;91.74;101094.03;1744131;82;20983;-36
2020/12/14 17:03:10;;;;;;;52.10;23.02;;;;;;;-0.79;91.79;101097.84;1744090;82;21545;-35
2020/12/14 17:05:41;;;;;;;51.53;23.27;;;;;;;-0.79;91.76;101092.34;1744156;81;21090;-36
2020/12/14 17:08:08;;;;;;;45.45;23.40;;;;;;;-0.78;91.73;101102.97;1744147;82;21426;-36
2020/12/14 17:10:36;;;;;;;56.20;25.57;;;;;;;-0.79;91.75;101103.78;1739288;81;20976;-38
2020/12/14 17:13:04;;;;;;;53.10;25.95;;;;;;;-0.79;91.79;101108.02;1744048;82;21588;-36
2020/12/14 17:15:32;;;;;;;51.10;24.95;;;;;;;-0.79;91.81;101102.93;1744122;82;20947;-35
2020/12/14 17:18:01;;;;;;;50.28;24.55;;;;;;;-0.78;91.80;101103.39;1744111;82;20924;-37
2020/12/14 17:20:29;;;;;;;57.33;28.25;;;;;;;-0.79;91.83;101104.20;1744165;82;22308;-37
2020/12/14 17:22:57;;;;;;;63.10;26.75;;;;;;;-0.80;91.90;101099.92;1744048;82;20943;-36
2020/12/14 17:25:25;;;;;;;60.35;26.97;;;;;;;-0.78;91.87;101098.30;1744127;82;20983;-36
2020/12/14 17:27:53;;;;;;;57.25;27.93;;;;;;;-0.77;91.83;101112.33;1744034;82;20920;-36
2020/12/14 17:30:21;;;;;;;56.02;26.55;;;;;;;-0.79;91.87;101110.56;1744109;82;20936;-35
2020/12/14 17:32:52;;;;;;;48.85;24.82;;;;;;;-0.78;91.86;101119.92;1744082;81;21371;-35
2020/12/14 17:35:19;;;;;;;51.85;25.77;;;;;;;-0.77;91.83;101119.11;1744069;81;21027;-37
2020/12/14 17:37:47;;;;;;;49.67;23.87;;;;;;;-0.77;91.85;101119.11;1744142;82;20976;-36
2020/12/14 17:40:15;;;;;;;48.95;23.42;;;;;;;-0.79;91.88;101122.85;1744070;82;20984;-36
2020/12/14 17:42:43;;;;;;;44.27;22.15;;;;;;;-0.79;91.87;101127.08;1744147;82;20944;-37
2020/12/14 17:45:11;;;;;;;45.48;22.80;;;;;;;-0.77;91.83;101129.28;1744078;82;21207;-35
2020/12/14 17:47:39;;;;;;;48.58;23.30;;;;;;;-0.80;91.82;101130.44;1744082;82;21062;-36
2020/12/14 17:50:10;;;;;;;50.78;22.95;;;;;;;-0.81;91.85;101132.52;1744101;82;20943;-37
2020/12/14 17:52:38;;;;;;;54.27;23.00;;;;;;;-0.82;91.89;101134.59;1744049;82;21391;-36
2020/12/14 17:55:07;;;;;;;52.45;24.43;;;;;;;-0.80;91.88;101138.06;1744154;82;21000;-37
2020/12/14 17:57:35;;;;;;;49.63;22.93;;;;;;;-0.79;91.92;101147.01;1744018;82;21262;-36
2020/12/14 18:00:07;;;;;;;50.58;22.58;;;;;;;-0.79;91.96;101152.09;1736924;81;20943;-37
2020/12/14 18:02:35;;;;;;;46.55;22.13;;;;;;;-0.78;91.96;101150.02;1735962;82;20988;-36
2020/12/14 18:05:03;;;;;;;50.20;23.12;;;;;;;-0.77;91.89;101146.66;1735860;82;20912;-36
2020/12/14 18:07:32;;;;;;;48.15;22.65;;;;;;;-0.77;91.96;101147.08;1735903;82;21009;-38
2020/12/14 18:10:04;;;;;;;49.27;22.75;;;;;;;-0.78;91.98;101155.52;1735981;82;21451;-37
2020/12/14 18:12:31;;;;;;;45.45;20.57;;;;;;;-0.77;91.97;101155.56;1735905;82;20928;-37
2020/12/14 18:14:59;;;;;;;51.40;22.75;;;;;;;-0.76;91.92;101155.17;1735862;82;20893;-36
2020/12/14 18:17:27;;;;;;;43.60;21.57;;;;;;;-0.76;91.97;101157.33;1735868;82;21012;-35
2020/12/14 18:19:55;;;;;;;49.95;22.13;;;;;;;-0.76;92.00;101158.59;1735879;81;20933;-36
2020/12/14 18:22:23;;;;;;;41.80;20.45;;;;;;;-0.74;91.96;101156.09;1735899;82;21383;-35
2020/12/14 18:24:50;;;;;;;50.88;23.20;;;;;;;-0.74;91.92;101157.37;1735832;82;20948;-37
2020/12/14 18:27:18;;;;;;;45.52;22.42;;;;;;;-0.73;91.93;101161.64;1735926;82;20968;-37
2020/12/14 18:29:46;;;;;;;42.48;22.62;;;;;;;-0.74;91.98;101152.28;1735861;82;20983;-38
2020/12/14 18:39:38;;;;;;;47.73;22.32;;;;;;;-0.72;91.94;101154.48;1735695;81;20959;-36
2020/12/14 21:24:46;;;;;;;68.35;24.80;;;;;;;-0.77;92.15;101208.11;1789016;80;21010;-35
2020/12/14 21:27:15;;;;;;;60.17;25.23;;;;;;;-0.78;92.17;101208.91;1758342;80;20987;-36
2020/12/14 21:29:54;;;;;;;53.45;23.52;;;;;;;-0.77;92.21;101208.11;1788781;80;21524;-35
2020/12/14 21:32:22;;;;;;;59.05;23.67;;;;;;;-0.75;92.12;101206.48;1788641;80;21205;-36
2020/12/14 21:34:51;;;;;;;55.85;23.07;;;;;;;-0.79;92.08;101205.48;1788515;80;20883;-36
2020/12/14 21:37:19;;;;;;;55.45;24.02;;;;;;;-0.81;92.10;101208.80;1788739;80;20916;-35
2020/12/14 21:39:46;;;;;;;71.37;24.77;;;;;;;-0.81;92.15;101203.71;1788766;80;21554;-36
2020/12/14 21:42:14;;;;;;;65.22;26.23;;;;;;;-0.79;92.13;101199.55;1788689;80;20974;-36
2020/12/14 21:44:42;;;;;;;64.42;25.45;;;;;;;-0.79;92.12;101199.13;1788652;80;21217;-37
2020/12/14 21:47:10;;;;;;;65.50;25.55;;;;;;;-0.77;92.18;101201.33;1788610;80;20935;-36
2020/12/14 21:49:40;;;;;;;64.65;27.05;;;;;;;-0.76;92.19;101203.09;1788644;80;20970;-37
2020/12/14 21:52:08;;;;;;;68.35;26.62;;;;;;;-0.72;92.10;101206.61;1788563;80;20979;-37
2020/12/14 21:54:36;;;;;;;71.70;28.32;;;;;;;-0.73;92.09;101209.96;1788565;80;20995;-35
2020/12/14 21:57:06;;;;;;;69.07;27.15;;;;;;;-0.69;92.19;101216.90;1788566;80;21199;-35